createdAt,value
2022-08-20T00:00:26.831Z,98006.99
2022-08-20T00:03:07.746Z,98007.52
2022-08-20T00:05:36.859Z,98008.86
2022-08-20T00:08:08.080Z,98010.09
2022-08-20T00:10:39.385Z,98009.77
2022-08-20T00:13:08.378Z,98003.63
2022-08-20T00:15:38.290Z,98004.34
2022-08-20T00:18:08.675Z,98005.29
2022-08-20T00:20:38.255Z,98008.42
2022-08-20T00:23:13.492Z,98006.72
2022-08-20T00:25:41.241Z,98013.25
2022-08-20T00:28:15.512Z,98017.84
2022-08-20T00:30:46.855Z,98022.57
2022-08-20T00:33:20.096Z,98026.00
2022-08-20T00:35:52.722Z,98031.48
2022-08-20T00:38:19.984Z,98024.25
2022-08-20T00:40:48.750Z,98020.05
2022-08-20T00:43:30.696Z,98020.15
2022-08-20T00:46:00.427Z,98012.37
2022-08-20T00:48:31.921Z,98004.83
2022-08-20T00:51:05.190Z,97995.61
2022-08-20T00:53:35.213Z,97989.92
2022-08-20T00:56:09.776Z,97992.40
2022-08-20T00:58:39.243Z,97995.41
2022-08-20T01:01:07.134Z,97993.73
2022-08-20T01:03:35.987Z,97994.27
2022-08-20T01:06:03.070Z,97990.30
2022-08-20T01:08:29.834Z,97987.38
2022-08-20T01:11:10.095Z,97989.02
2022-08-20T01:13:43.769Z,97993.04
2022-08-20T01:16:17.999Z,97995.73
2022-08-20T01:18:47.809Z,97992.77
2022-08-20T01:21:16.450Z,97988.15
2022-08-20T01:23:55.871Z,97984.68
2022-08-20T01:26:32.042Z,97987.84
2022-08-20T01:29:05.975Z,97986.23
2022-08-20T01:31:37.326Z,97985.86
2022-08-20T01:34:06.824Z,97982.77
2022-08-20T01:36:36.096Z,97979.73
2022-08-20T01:39:04.178Z,97971.62
2022-08-20T01:41:39.078Z,97969.54
2022-08-20T01:44:05.808Z,97968.52
2022-08-20T01:46:44.013Z,97968.40
2022-08-20T01:49:13.777Z,97966.72
2022-08-20T01:51:53.827Z,97964.91
2022-08-20T01:54:21.397Z,97960.96
2022-08-20T01:57:06.337Z,97959.86
2022-08-20T01:59:38.107Z,97955.88
2022-08-20T02:02:09.867Z,97955.77
2022-08-20T02:04:42.602Z,97951.64
2022-08-20T02:07:14.255Z,97952.02
2022-08-20T02:09:45.471Z,97952.52
2022-08-20T02:12:16.974Z,97954.59
2022-08-20T02:14:49.285Z,97954.91
2022-08-20T02:17:17.997Z,97958.03
2022-08-20T02:20:00.319Z,97962.49
2022-08-20T02:22:28.040Z,97965.52
2022-08-20T02:25:02.044Z,97967.64
2022-08-20T02:27:33.786Z,97962.91
2022-08-20T02:30:06.712Z,97962.55
2022-08-20T02:32:35.691Z,97964.21
2022-08-20T02:35:05.326Z,97958.87
2022-08-20T02:37:32.137Z,97957.25
2022-08-20T02:39:59.135Z,97954.80
2022-08-20T02:42:26.375Z,97957.90
2022-08-20T02:44:54.544Z,97953.52
2022-08-20T02:47:21.307Z,97955.08
2022-08-20T02:49:53.803Z,97955.45
2022-08-20T02:52:20.925Z,97959.59
2022-08-20T02:54:50.015Z,97962.67
2022-08-20T02:57:23.563Z,97959.41
2022-08-20T02:59:53.852Z,97958.18
2022-08-20T03:02:21.158Z,97958.64
2022-08-20T03:04:52.086Z,97962.58
2022-08-20T03:07:22.204Z,97967.58
2022-08-20T03:09:50.828Z,97970.77
2022-08-20T03:12:24.191Z,97971.04
2022-08-20T03:14:51.488Z,97967.66
2022-08-20T03:17:19.405Z,97968.63
2022-08-20T03:19:46.140Z,97973.10
2022-08-20T03:22:14.089Z,97977.52
2022-08-20T03:24:43.967Z,97980.45
2022-08-20T03:27:12.861Z,97982.46
2022-08-20T03:29:42.901Z,97980.30
2022-08-20T03:32:14.527Z,97972.20
2022-08-20T03:34:41.294Z,97973.02
2022-08-20T03:37:08.470Z,97973.48
2022-08-20T03:39:38.602Z,97977.60
2022-08-20T03:42:06.630Z,97981.45
2022-08-20T03:44:36.565Z,97979.55
2022-08-20T03:47:07.347Z,97982.38
2022-08-20T03:49:38.908Z,97980.50
2022-08-20T03:52:07.930Z,97987.31
2022-08-20T03:54:34.928Z,97991.33
2022-08-20T03:57:02.507Z,97993.33
2022-08-20T03:59:32.525Z,97992.27
2022-08-20T04:02:03.867Z,97993.32
2022-08-20T04:04:30.744Z,97993.02
2022-08-20T04:06:59.666Z,97989.67
2022-08-20T04:09:26.387Z,97987.15
2022-08-20T04:12:00.757Z,97982.33
2022-08-20T04:14:29.335Z,97984.53
2022-08-20T04:17:06.643Z,97988.64
2022-08-20T04:19:34.405Z,97993.25
2022-08-20T04:22:01.178Z,97992.42
2022-08-20T04:24:32.398Z,97991.38
2022-08-20T04:27:05.876Z,97989.36
2022-08-20T04:29:33.680Z,97988.36
2022-08-20T04:32:05.779Z,97989.05
2022-08-20T04:34:33.106Z,97989.90
2022-08-20T04:36:59.804Z,97991.52
2022-08-20T04:39:27.779Z,97991.11
2022-08-20T04:41:54.628Z,97989.93
2022-08-20T04:44:22.275Z,97988.70
2022-08-20T04:46:54.544Z,97987.86
2022-08-20T04:49:25.934Z,97985.31
2022-08-20T04:51:57.333Z,97985.13
2022-08-20T04:54:27.303Z,97980.64
2022-08-20T04:56:56.866Z,97980.10
2022-08-20T04:59:26.518Z,97980.72
2022-08-20T05:01:54.709Z,97976.59
2022-08-20T05:04:21.539Z,97975.98
2022-08-20T05:06:49.395Z,97977.89
2022-08-20T05:09:21.014Z,97974.83
2022-08-20T05:11:49.956Z,97976.67
2022-08-20T05:14:16.743Z,97974.15
2022-08-20T05:16:43.487Z,97971.98
2022-08-20T05:19:11.510Z,97964.52
2022-08-20T05:21:40.229Z,97962.52
2022-08-20T05:24:10.258Z,97964.53
2022-08-20T05:26:37.029Z,97967.21
2022-08-20T05:29:06.383Z,97961.54
2022-08-20T05:31:44.717Z,97960.88
2022-08-20T05:34:17.133Z,97967.09
2022-08-20T05:36:49.173Z,97969.80
2022-08-20T05:39:27.447Z,97971.80
2022-08-20T05:41:54.488Z,97970.73
2022-08-20T05:44:22.949Z,97966.70
2022-08-20T05:46:52.738Z,97966.14
2022-08-20T05:49:27.139Z,97965.28
2022-08-20T05:51:53.942Z,97965.00
2022-08-20T05:54:28.532Z,97968.20
2022-08-20T05:56:58.843Z,97972.95
2022-08-20T05:59:27.082Z,97975.25
2022-08-20T06:01:53.793Z,97976.36
2022-08-20T06:04:34.157Z,97977.34
2022-08-20T06:07:21.262Z,97978.08
2022-08-20T06:09:53.375Z,97974.12
2022-08-20T06:12:26.284Z,97974.45
2022-08-20T06:14:57.049Z,97973.79
2022-08-20T06:17:34.823Z,97975.16
2022-08-20T06:20:08.718Z,97971.34
2022-08-20T06:22:42.876Z,97970.27
2022-08-20T06:25:10.939Z,97964.48
2022-08-20T06:27:43.533Z,97964.16
2022-08-20T06:30:11.521Z,97962.33
2022-08-20T06:32:41.180Z,97963.95
2022-08-20T06:35:11.161Z,97964.73
2022-08-20T06:37:39.754Z,97966.94
2022-08-20T06:40:12.789Z,97962.89
2022-08-20T06:42:47.774Z,97957.88
2022-08-20T06:45:18.217Z,97954.05
2022-08-20T06:47:52.029Z,97958.55
2022-08-20T06:50:24.727Z,97960.20
2022-08-20T06:53:00.377Z,97962.39
2022-08-20T06:55:32.435Z,97960.54
2022-08-20T06:58:00.877Z,97955.27
2022-08-20T07:00:41.862Z,97958.58
2022-08-20T07:03:10.092Z,97959.86
2022-08-20T07:05:47.543Z,97960.02
2022-08-20T07:08:16.048Z,97960.77
2022-08-20T07:10:49.129Z,97961.30
2022-08-20T07:13:16.522Z,97957.38
2022-08-20T07:15:43.811Z,97956.85
2022-08-20T07:18:16.748Z,97957.73
2022-08-20T07:21:10.031Z,97958.52
2022-08-20T07:23:47.609Z,97955.06
2022-08-20T07:26:24.936Z,97956.30
2022-08-20T07:28:59.041Z,97957.73
2022-08-20T07:31:48.177Z,97959.00
2022-08-20T07:34:21.814Z,97956.73
2022-08-20T07:36:49.678Z,97963.70
2022-08-20T07:39:18.670Z,97967.26
2022-08-20T07:42:13.598Z,97961.64
2022-08-20T07:44:41.775Z,97958.95
2022-08-20T07:47:13.226Z,97953.00
2022-08-20T07:49:44.085Z,97955.60
2022-08-20T07:52:16.966Z,97953.39
2022-08-20T07:54:51.724Z,97960.12
2022-08-20T07:57:25.666Z,97952.34
2022-08-20T08:00:00.056Z,97946.19
2022-08-20T08:02:27.704Z,97945.08
2022-08-20T08:04:57.453Z,97943.69
2022-08-20T08:07:25.952Z,97934.34
2022-08-20T08:09:59.383Z,97930.50
2022-08-20T08:12:36.143Z,97929.67
2022-08-20T08:15:14.772Z,97926.14
2022-08-20T08:17:48.767Z,97922.39
2022-08-20T08:20:22.893Z,97916.85
2022-08-20T08:22:50.314Z,97918.45
2022-08-20T08:25:17.115Z,97912.77
2022-08-20T08:27:48.283Z,97911.88
2022-08-20T08:30:17.204Z,97914.78
2022-08-20T08:33:03.459Z,97914.06
2022-08-20T08:35:35.664Z,97909.48
2022-08-20T08:38:02.624Z,97908.23
2022-08-20T08:40:31.862Z,97901.90
2022-08-20T08:43:02.655Z,97898.61
2022-08-20T08:45:49.070Z,97899.06
2022-08-20T08:48:18.679Z,97893.06
2022-08-20T08:50:54.646Z,97890.70
2022-08-20T08:53:28.469Z,97892.13
2022-08-20T08:55:56.983Z,97886.38
2022-08-20T08:58:23.821Z,97886.86
2022-08-20T09:00:57.573Z,97889.39
2022-08-20T09:03:39.579Z,97888.17
2022-08-20T09:06:07.329Z,97886.24
2022-08-20T09:08:42.781Z,97888.59
2022-08-20T09:11:15.515Z,97886.75
2022-08-20T09:13:50.689Z,97887.55
2022-08-20T09:16:52.044Z,97879.80
2022-08-20T09:19:25.806Z,97879.23
2022-08-20T09:21:52.964Z,97877.95
2022-08-20T09:24:19.884Z,97874.14
2022-08-20T09:26:50.474Z,97877.16
2022-08-20T09:29:20.620Z,97873.32
2022-08-20T09:32:16.213Z,97870.42
2022-08-20T09:34:47.420Z,97874.95
2022-08-20T09:37:20.183Z,97875.04
2022-08-20T09:39:48.611Z,97874.64
2022-08-20T09:42:21.506Z,97872.23
2022-08-20T09:44:48.364Z,97882.02
2022-08-20T09:47:19.566Z,97876.15
2022-08-20T09:49:49.023Z,97877.98
2022-08-20T09:52:22.284Z,97880.04
2022-08-20T09:54:55.458Z,97875.74
2022-08-20T09:57:31.223Z,97870.72
2022-08-20T10:00:11.268Z,97869.66
2022-08-20T10:02:40.983Z,97871.08
2022-08-20T10:05:12.399Z,97873.92
2022-08-20T10:07:44.152Z,97869.87
2022-08-20T10:10:15.895Z,97868.02
2022-08-20T10:12:42.909Z,97861.97
2022-08-20T10:15:13.934Z,97860.53
2022-08-20T10:17:46.349Z,97857.09
2022-08-20T10:20:14.293Z,97859.13
2022-08-20T10:22:42.291Z,97859.40
2022-08-20T10:25:12.832Z,97855.17
2022-08-20T10:27:47.154Z,97856.64
2022-08-20T10:30:16.630Z,97852.27
2022-08-20T10:32:46.018Z,97854.59
2022-08-20T10:35:15.210Z,97850.17
2022-08-20T10:37:46.476Z,97847.48
2022-08-20T10:40:15.525Z,97845.33
2022-08-20T10:42:53.880Z,97848.35
2022-08-20T10:45:35.253Z,97840.70
2022-08-20T10:48:08.377Z,97839.08
2022-08-20T10:50:37.882Z,97846.70
2022-08-20T10:53:06.805Z,97843.48
2022-08-20T10:55:37.249Z,97847.02
2022-08-20T10:58:07.698Z,97847.75
2022-08-20T11:00:45.614Z,97843.83
2022-08-20T11:03:12.818Z,97843.41
2022-08-20T11:05:39.654Z,97844.44
2022-08-20T11:08:06.786Z,97841.27
2022-08-20T11:10:37.812Z,97833.55
2022-08-20T11:13:07.449Z,97835.89
2022-08-20T11:15:36.662Z,97838.64
2022-08-20T11:18:04.590Z,97834.89
2022-08-20T11:20:31.823Z,97835.29
2022-08-20T11:23:03.010Z,97832.77
2022-08-20T11:25:37.055Z,97828.98
2022-08-20T11:28:04.668Z,97831.59
2022-08-20T11:30:41.221Z,97823.63
2022-08-20T11:33:30.034Z,97821.57
2022-08-20T11:35:57.034Z,97820.27
2022-08-20T11:38:28.741Z,97816.25
2022-08-20T11:40:59.951Z,97818.70
2022-08-20T11:43:26.787Z,97817.25
2022-08-20T11:45:54.895Z,97808.38
2022-08-20T11:48:27.378Z,97807.41
2022-08-20T11:50:59.183Z,97796.12
2022-08-20T11:53:33.823Z,97794.49
2022-08-20T11:56:02.810Z,97797.20
2022-08-20T11:58:33.891Z,97790.61
2022-08-20T12:01:06.876Z,97792.11
2022-08-20T12:03:33.826Z,97787.51
2022-08-20T12:06:00.673Z,97778.96
2022-08-20T12:08:29.033Z,97775.38
2022-08-20T12:10:57.365Z,97776.19
2022-08-20T12:13:30.413Z,97773.90
2022-08-20T12:16:01.972Z,97771.56
2022-08-20T12:18:33.362Z,97771.71
2022-08-20T12:21:04.365Z,97766.16
2022-08-20T12:23:34.678Z,97761.86
2022-08-20T12:26:02.847Z,97762.63
2022-08-20T12:28:30.399Z,97767.70
2022-08-20T12:30:57.553Z,97765.80
2022-08-20T12:33:31.825Z,97760.70
2022-08-20T12:36:01.151Z,97758.23
2022-08-20T12:38:28.186Z,97750.49
2022-08-20T12:40:56.032Z,97749.03
2022-08-20T12:43:26.102Z,97744.56
2022-08-20T12:45:52.938Z,97740.49
2022-08-20T12:48:21.837Z,97739.42
2022-08-20T12:50:53.145Z,97741.44
2022-08-20T12:53:20.192Z,97736.91
2022-08-20T12:55:47.115Z,97733.97
2022-08-20T12:58:19.839Z,97733.03
2022-08-20T13:00:51.226Z,97730.69
2022-08-20T13:03:28.476Z,97727.15
2022-08-20T13:06:05.246Z,97726.98
2022-08-20T13:08:36.447Z,97719.27
2022-08-20T13:11:09.355Z,97715.50
2022-08-20T13:13:40.773Z,97714.23
2022-08-20T13:16:10.406Z,97710.70
2022-08-20T13:18:41.255Z,97711.21
2022-08-20T13:21:15.552Z,97717.36
2022-08-20T13:23:43.781Z,97716.24
2022-08-20T13:26:11.089Z,97706.52
2022-08-20T13:28:41.594Z,97696.27
2022-08-20T13:31:14.315Z,97690.36
2022-08-20T13:33:44.277Z,97682.89
2022-08-20T13:36:16.436Z,97684.68
2022-08-20T13:38:47.574Z,97687.51
2022-08-20T13:41:32.509Z,97685.92
2022-08-20T13:43:59.347Z,97683.81
2022-08-20T13:46:28.557Z,97679.70
2022-08-20T13:48:57.522Z,97680.96
2022-08-20T13:51:24.331Z,97677.09
2022-08-20T13:53:55.118Z,97675.02
2022-08-20T13:56:26.542Z,97674.88
2022-08-20T13:59:04.311Z,97673.54
2022-08-20T14:01:40.843Z,97671.57
2022-08-20T14:04:13.939Z,97665.70
2022-08-20T14:06:49.558Z,97665.00
2022-08-20T14:09:19.807Z,97667.61
2022-08-20T14:11:50.054Z,97665.05
2022-08-20T14:14:24.480Z,97662.84
2022-08-20T14:16:57.826Z,97660.52
2022-08-20T14:19:28.595Z,97660.46
2022-08-20T14:21:56.668Z,97657.89
2022-08-20T14:24:28.548Z,97655.23
2022-08-20T14:27:08.924Z,97649.21
2022-08-20T14:29:42.702Z,97648.65
2022-08-20T14:32:12.245Z,97643.73
2022-08-20T14:34:39.500Z,97641.75
2022-08-20T14:37:14.343Z,97641.59
2022-08-20T14:39:41.595Z,97641.83
2022-08-20T14:42:11.728Z,97641.19
2022-08-20T14:44:38.679Z,97639.52
2022-08-20T14:47:18.559Z,97640.66
2022-08-20T14:49:48.553Z,97640.13
2022-08-20T14:52:20.834Z,97638.56
2022-08-20T14:54:51.587Z,97637.88
2022-08-20T14:57:19.060Z,97641.08
2022-08-20T14:59:46.244Z,97638.00
2022-08-20T15:02:14.460Z,97636.29
2022-08-20T15:04:44.959Z,97637.04
2022-08-20T15:07:27.796Z,97633.08
2022-08-20T15:09:57.662Z,97635.30
2022-08-20T15:12:24.407Z,97638.70
2022-08-20T15:14:51.205Z,97643.63
2022-08-20T15:17:23.884Z,97644.24
2022-08-20T15:19:50.733Z,97639.87
2022-08-20T15:22:21.961Z,97630.66
2022-08-20T15:24:49.012Z,97626.20
2022-08-20T15:27:22.244Z,97626.73
2022-08-20T15:29:54.411Z,97626.98
2022-08-20T15:32:21.620Z,97625.39
2022-08-20T15:34:48.773Z,97623.25
2022-08-20T15:37:22.773Z,97619.45
2022-08-20T15:39:50.453Z,97620.92
2022-08-20T15:42:18.711Z,97619.48
2022-08-20T15:44:48.275Z,97625.37
2022-08-20T15:47:22.800Z,97622.15
2022-08-20T15:49:57.348Z,97621.71
2022-08-20T15:52:32.873Z,97624.45
2022-08-20T15:55:05.419Z,97624.92
2022-08-20T15:57:43.557Z,97626.81
2022-08-20T16:00:31.779Z,97632.80
2022-08-20T16:03:07.484Z,97643.00
2022-08-20T16:05:56.165Z,97650.42
2022-08-20T16:08:48.986Z,97645.11
2022-08-20T16:11:25.756Z,97646.55
2022-08-20T16:14:01.878Z,97646.91
2022-08-20T16:16:36.851Z,97647.93
2022-08-20T16:19:11.732Z,97646.27
2022-08-20T16:21:40.349Z,97647.88
2022-08-20T16:24:12.776Z,97653.81
2022-08-20T16:26:43.218Z,97655.65
2022-08-20T16:29:18.993Z,97655.35
2022-08-20T16:31:53.074Z,97660.92
2022-08-20T16:34:42.910Z,97663.52
2022-08-20T16:37:10.237Z,97662.32
2022-08-20T16:39:43.161Z,97667.59
2022-08-20T16:42:15.045Z,97673.67
2022-08-20T16:44:52.212Z,97681.50
2022-08-20T16:47:40.572Z,97684.87
2022-08-20T16:50:16.578Z,97686.05
2022-08-20T16:52:46.277Z,97684.08
2022-08-20T16:55:16.849Z,97686.52
2022-08-20T16:57:48.449Z,97686.80
2022-08-20T17:00:25.692Z,97688.01
2022-08-20T17:02:59.530Z,97689.67
2022-08-20T17:05:43.195Z,97688.29
2022-08-20T17:08:16.446Z,97690.91
2022-08-20T17:11:00.344Z,97690.55
2022-08-20T17:13:29.597Z,97689.32
2022-08-20T17:15:59.993Z,97688.92
2022-08-20T17:18:31.743Z,97683.30
2022-08-20T17:21:22.886Z,97678.09
2022-08-20T17:23:56.676Z,97679.25
2022-08-20T17:26:36.629Z,97682.34
2022-08-20T17:29:13.002Z,97684.20
2022-08-20T17:31:41.894Z,97688.11
2022-08-20T17:34:32.698Z,97690.41
2022-08-20T17:37:08.520Z,97690.89
2022-08-20T17:39:46.375Z,97689.70
2022-08-20T17:42:18.378Z,97688.77
2022-08-20T17:44:55.149Z,97686.48
2022-08-20T17:47:30.224Z,97685.52
2022-08-20T17:50:04.968Z,97693.52
2022-08-20T17:52:42.194Z,97694.16
2022-08-20T17:55:10.213Z,97692.04
2022-08-20T17:57:39.146Z,97695.05
2022-08-20T18:00:15.527Z,97699.83
2022-08-20T18:02:42.990Z,97699.45
2022-08-20T18:05:15.849Z,97701.48
2022-08-20T18:07:57.699Z,97706.24
2022-08-20T18:10:26.554Z,97706.55
2022-08-20T18:13:11.869Z,97705.05
2022-08-20T18:15:57.607Z,97708.53
2022-08-20T18:18:56.704Z,97711.80
2022-08-20T18:21:43.163Z,97714.41
2022-08-20T18:24:18.346Z,97714.72
2022-08-20T18:27:02.092Z,97718.51
2022-08-20T18:29:34.836Z,97721.56
2022-08-20T18:32:05.020Z,97725.84
2022-08-20T18:34:31.837Z,97737.47
2022-08-20T18:37:03.921Z,97739.55
2022-08-20T18:39:32.464Z,97734.43
2022-08-20T18:42:10.706Z,97734.84
2022-08-20T18:44:44.691Z,97735.94
2022-08-20T18:47:35.427Z,97739.68
2022-08-20T18:50:04.907Z,97740.83
2022-08-20T18:52:36.964Z,97737.73
2022-08-20T18:55:06.334Z,97740.06
2022-08-20T18:57:52.024Z,97739.96
2022-08-20T19:00:24.625Z,97743.21
2022-08-20T19:03:05.470Z,97743.05
2022-08-20T19:05:38.052Z,97740.90
2022-08-20T19:08:11.158Z,97741.31
2022-08-20T19:10:47.785Z,97744.06
2022-08-20T19:13:36.319Z,97741.12
2022-08-20T19:16:12.621Z,97740.31
2022-08-20T19:18:46.520Z,97740.92
2022-08-20T19:21:15.900Z,97744.52
2022-08-20T19:23:56.668Z,97753.14
2022-08-20T19:26:32.939Z,97758.77
2022-08-20T19:29:27.586Z,97756.91
2022-08-20T19:32:05.561Z,97760.01
2022-08-20T19:34:32.747Z,97767.02
2022-08-20T19:37:27.513Z,97760.95
2022-08-20T19:39:52.864Z,97761.10
2022-08-20T19:42:25.749Z,97759.11
2022-08-20T19:45:01.293Z,97756.23
2022-08-20T19:47:36.084Z,97751.08
2022-08-20T19:50:11.515Z,97746.33
2022-08-20T19:52:48.055Z,97742.41
2022-08-20T19:55:18.114Z,97744.59
2022-08-20T19:57:52.940Z,97749.42
2022-08-20T20:00:24.783Z,97749.52
2022-08-20T20:02:53.622Z,97743.96
2022-08-20T20:05:25.410Z,97739.31
2022-08-20T20:08:02.884Z,97740.35
2022-08-20T20:10:32.839Z,97742.65
2022-08-20T20:13:12.560Z,97741.05
2022-08-20T20:15:40.058Z,97743.11
2022-08-20T20:18:08.056Z,97746.35
2022-08-20T20:20:55.920Z,97746.77
2022-08-20T20:23:28.048Z,97753.62
2022-08-20T20:26:16.451Z,97748.83
2022-08-20T20:28:45.234Z,97749.23
2022-08-20T20:31:15.237Z,97748.01
2022-08-20T20:33:51.137Z,97750.58
2022-08-20T20:36:30.305Z,97748.99
2022-08-20T20:39:02.362Z,97749.72
2022-08-20T20:41:35.068Z,97753.39
2022-08-20T20:44:07.649Z,97754.07
2022-08-20T20:46:35.572Z,97751.74
2022-08-20T20:49:18.926Z,97745.73
2022-08-20T20:51:54.389Z,97743.97
2022-08-20T20:54:26.078Z,97743.27
2022-08-20T20:57:15.953Z,97743.49
2022-08-20T20:59:43.745Z,97745.82
2022-08-20T21:02:14.725Z,97742.82
2022-08-20T21:04:44.381Z,97744.91
2022-08-20T21:07:14.923Z,97750.61
2022-08-20T21:09:46.367Z,97754.23
2022-08-20T21:12:14.136Z,97760.18
2022-08-20T21:14:41.506Z,97764.62
2022-08-20T21:17:13.380Z,97765.60
2022-08-20T21:19:45.744Z,97760.59
2022-08-20T21:25:34.337Z,97764.62
2022-08-20T21:28:01.919Z,97768.83
2022-08-20T21:33:34.332Z,97767.05
2022-08-20T21:36:34.094Z,97763.79
2022-08-20T21:39:09.148Z,97763.98
2022-08-20T21:41:37.567Z,97766.50
2022-08-20T21:47:41.805Z,97767.17
2022-08-20T21:50:09.637Z,97765.34
2022-08-20T21:52:37.557Z,97768.75
2022-08-20T21:55:21.535Z,97770.64
2022-08-20T21:58:16.924Z,97767.25
2022-08-20T22:00:50.507Z,97762.05
2022-08-20T22:03:21.820Z,97760.88
2022-08-20T22:05:53.400Z,97756.92
2022-08-20T22:08:20.810Z,97756.46
2022-08-20T22:10:54.766Z,97755.65
2022-08-20T22:13:22.566Z,97754.55
2022-08-20T22:15:50.809Z,97751.45
2022-08-20T22:18:19.901Z,97750.88
2022-08-20T22:20:47.972Z,97749.41
2022-08-20T22:23:16.158Z,97748.36
2022-08-20T22:25:44.035Z,97745.96
2022-08-20T22:28:16.390Z,97748.90
2022-08-20T22:30:44.424Z,97748.35
2022-08-20T22:33:28.204Z,97743.16
2022-08-20T22:35:56.519Z,97742.33
2022-08-20T22:38:27.856Z,97735.97
2022-08-20T22:41:02.723Z,97733.92
2022-08-20T22:43:34.483Z,97731.97
2022-08-20T22:46:02.278Z,97734.58
2022-08-20T22:48:30.538Z,97729.51
2022-08-20T22:50:58.848Z,97732.91
2022-08-20T22:53:30.706Z,97731.98
2022-08-20T22:56:00.826Z,97730.90
2022-08-20T22:58:33.915Z,97731.21
2022-08-20T23:01:04.265Z,97729.55
2022-08-20T23:03:39.992Z,97729.81
2022-08-20T23:06:14.859Z,97728.04
2022-08-20T23:08:47.688Z,97728.65
2022-08-20T23:11:29.443Z,97726.02
2022-08-20T23:14:21.983Z,97725.34
2022-08-20T23:17:01.428Z,97724.96
2022-08-20T23:19:32.075Z,97718.72
2022-08-20T23:22:00.818Z,97715.00
2022-08-20T23:28:41.668Z,97718.59
2022-08-20T23:34:35.924Z,97717.08
2022-08-20T23:37:04.802Z,97714.50
2022-08-20T23:39:40.187Z,97713.86
2022-08-20T23:42:07.977Z,97711.77
2022-08-20T23:44:36.840Z,97710.54
2022-08-20T23:47:05.738Z,97708.01
2022-08-20T23:49:38.905Z,97709.15
2022-08-20T23:52:10.504Z,97709.58
2022-08-20T23:54:37.941Z,97710.76
2022-08-20T23:57:10.729Z,97707.86
2022-08-20T23:59:39.388Z,97701.63
